Time;durP1;ratioP1;P1;durP2;ratioP2;P2;SDS_P1;SDS_P2;PMS_P1;PMS_P2;Temp;Humidity;BMP_temperature;BMP_pressure;BME280_temperature;BME280_humidity;BME280_pressure;Samples;Min_cycle;Max_cycle;Signal;HPM_P1;HPM_P2
2022/08/09 00:00:26;;;;;;;;;;;;;;;16.47;100.00;99995.03;1723637;83;20412;-73
2022/08/09 00:02:54;;;;;;;;;;;;;;;16.49;100.00;99993.30;1724292;83;20518;-73
2022/08/09 00:05:24;;;;;;;;;;;;;;;16.49;100.00;99987.18;1739546;82;20079;-74
2022/08/09 00:07:53;;;;;;;;;;;;;;;16.51;100.00;99986.26;1725434;82;21505;-73
2022/08/09 00:10:24;;;;;;;;;;;;;;;16.50;100.00;99982.45;1724705;83;20085;-73
2022/08/09 00:12:58;;;;;;;;;;;;;;;16.49;100.00;99984.41;1724121;82;20117;-73
2022/08/09 00:15:31;;;;;;;;;;;;;;;16.49;100.00;99976.67;1700066;83;20093;-73
2022/08/09 00:17:58;;;;;;;;;;;;;;;16.50;100.00;99979.67;1700269;83;20140;-73
2022/08/09 00:20:28;;;;;;;;;;;;;;;16.50;100.00;99981.88;1724854;83;21175;-73
2022/08/09 00:22:56;;;;;;;;;;;;;;;16.51;100.00;99981.30;1724811;83;20081;-73
2022/08/09 00:25:29;;;;;;;;;;;;;;;16.53;100.00;99980.38;1724546;83;20097;-73
2022/08/09 00:27:55;;;;;;;;;;;;;;;16.55;100.00;99977.26;1724226;83;20177;-73
2022/08/09 00:30:26;;;;;;;;;;;;;;;16.57;100.00;99980.49;1725118;83;20152;-73
2022/08/09 00:32:54;;;;;;;;;;;;;;;16.57;100.00;99986.84;1724392;83;20988;-73
2022/08/09 00:35:26;;;;;;;;;;;;;;;16.61;100.00;99984.19;1712833;82;20417;-73
2022/08/09 00:37:58;;;;;;;;;;;;;;;16.62;100.00;99981.66;1733442;82;20431;-73
2022/08/09 00:40:25;;;;;;;;;;;;;;;16.63;100.00;99974.95;1724187;83;20120;-73
2022/08/09 00:42:52;;;;;;;;;;;;;;;16.62;100.00;99979.69;1724939;83;20121;-73
2022/08/09 00:45:32;;;;;;;;;;;;;;;16.63;100.00;99983.27;1724832;83;21139;-73
2022/08/09 00:47:49;;;;;;;;;;;;;;;16.62;100.00;99984.42;1723472;83;20467;-73
2022/08/09 00:50:23;;;;;;;;;;;;;;;16.59;100.00;99976.22;1698511;83;20113;-73
2022/08/09 00:52:52;;;;;;;;;;;;;;;16.58;100.00;99977.95;1719488;83;20715;-73
2022/08/09 00:55:24;;;;;;;;;;;;;;;16.56;100.00;99977.48;1724800;83;20435;-73
2022/08/09 00:57:52;;;;;;;;;;;;;;;16.51;100.00;99979.91;1722811;83;21023;-73
2022/08/09 01:00:19;;;;;;;;;;;;;;;16.47;100.00;99986.72;1724740;83;20444;-76
2022/08/09 01:02:55;;;;;;;;;;;;;;;16.42;100.00;99993.87;1723494;83;20499;-73
2022/08/09 01:05:39;;;;;;;;;;;;;;;16.39;100.00;99993.74;1723075;83;20101;-73
2022/08/09 01:08:21;;;;;;;;;;;;;;;16.36;100.00;99987.50;1720270;83;20073;-73
2022/08/09 01:10:54;;;;;;;;;;;;;;;16.34;100.00;99989.23;1724355;83;20085;-74
2022/08/09 01:13:25;;;;;;;;;;;;;;;16.32;100.00;99985.99;1723548;83;20191;-73
2022/08/09 01:15:53;;;;;;;;;;;;;;;16.31;100.00;99989.11;1723291;83;20101;-73
2022/08/09 01:18:26;;;;;;;;;;;;;;;16.29;100.00;99995.56;1724032;83;20429;-74
2022/08/09 01:21:13;;;;;;;;;;;;;;;16.26;100.00;99998.45;1724157;83;20133;-73
2022/08/09 01:23:53;;;;;;;;;;;;;;;16.24;100.00;100001.33;1724915;83;21171;-74
2022/08/09 01:26:56;;;;;;;;;;;;;;;16.19;100.00;99994.85;1724039;83;37695;-74
2022/08/09 01:29:43;;;;;;;;;;;;;;;16.14;100.00;99987.36;1724882;83;20097;-74
2022/08/09 01:32:16;;;;;;;;;;;;;;;16.08;100.00;99984.58;1724844;83;20097;-76
2022/08/09 01:34:42;;;;;;;;;;;;;;;16.03;100.00;99987.56;1732592;82;20082;-74
2022/08/09 01:37:09;;;;;;;;;;;;;;;15.99;100.00;99990.20;1728381;82;21509;-74
2022/08/09 01:39:42;;;;;;;;;;;;;;;15.97;100.00;99998.61;1753969;82;20111;-73
2022/08/09 01:42:14;;;;;;;;;;;;;;;15.94;100.00;99991.80;1739908;82;20109;-73
2022/08/09 01:44:43;;;;;;;;;;;;;;;15.93;100.00;99996.29;1724781;83;20096;-74
2022/08/09 01:47:08;;;;;;;;;;;;;;;15.92;100.00;100001.59;1723713;83;20113;-77
2022/08/09 01:49:35;;;;;;;;;;;;;;;15.91;100.00;100001.36;1720566;83;21164;-74
2022/08/09 01:52:06;;;;;;;;;;;;;;;15.92;100.00;100004.36;1724731;83;20209;-74
2022/08/09 01:54:37;;;;;;;;;;;;;;;15.93;100.00;100001.83;1724208;83;20141;-73
2022/08/09 01:57:11;;;;;;;;;;;;;;;15.95;100.00;100000.91;1723995;83;20085;-74
2022/08/09 01:59:38;;;;;;;;;;;;;;;15.95;100.00;99998.95;1723952;83;20116;-73
2022/08/09 02:02:11;;;;;;;;;;;;;;;15.95;100.00;99997.56;1723127;82;20121;-73
2022/08/09 02:04:40;;;;;;;;;;;;;;;15.93;100.00;100003.21;1724204;83;20101;-73
2022/08/09 02:07:18;;;;;;;;;;;;;;;15.92;100.00;100007.13;1713547;83;20149;-73
2022/08/09 02:09:57;;;;;;;;;;;;;;;15.93;100.00;100001.83;1699028;84;20102;-73
2022/08/09 02:12:26;;;;;;;;;;;;;;;15.91;100.00;100002.74;1678906;84;20113;-73
2022/08/09 02:15:00;;;;;;;;;;;;;;;15.89;100.00;100007.81;1676887;84;20098;-73
2022/08/09 02:17:29;;;;;;;;;;;;;;;15.88;100.00;100004.80;1677948;84;20124;-74
2022/08/09 02:19:57;;;;;;;;;;;;;;;15.84;100.00;100006.87;1698864;84;20117;-73
2022/08/09 02:22:42;;;;;;;;;;;;;;;15.83;100.00;100011.36;1678499;84;20440;-73
2022/08/09 02:25:23;;;;;;;;;;;;;;;15.83;100.00;100014.13;1693871;84;20121;-73
2022/08/09 02:27:54;;;;;;;;;;;;;;;15.85;100.00;100007.68;1698376;84;21143;-73
2022/08/09 02:30:27;;;;;;;;;;;;;;;15.85;100.00;100009.87;1698660;84;20110;-74
2022/08/09 02:33:01;;;;;;;;;;;;;;;15.84;100.00;100005.48;1708041;83;20085;-73
2022/08/09 02:35:29;;;;;;;;;;;;;;;15.82;100.00;100003.63;1705819;83;20099;-73
2022/08/09 02:38:02;;;;;;;;;;;;;;;15.80;100.00;100014.80;1727851;83;20095;-73
2022/08/09 02:40:29;;;;;;;;;;;;;;;15.79;100.00;100009.03;1727879;83;21108;-73
2022/08/09 02:43:09;;;;;;;;;;;;;;;15.79;100.00;100001.54;1728024;83;20107;-73
2022/08/09 02:45:39;;;;;;;;;;;;;;;15.80;100.00;99995.42;1723702;83;20139;-73
2022/08/09 02:48:11;;;;;;;;;;;;;;;15.82;100.00;99995.90;1730774;82;20114;-73
2022/08/09 02:50:45;;;;;;;;;;;;;;;15.83;100.00;99988.64;1727881;83;20095;-76
2022/08/09 02:53:22;;;;;;;;;;;;;;;15.87;100.00;100001.80;1726727;83;21156;-73
2022/08/09 02:55:43;;;;;;;;;;;;;;;15.87;100.00;99997.65;1724454;83;20107;-73
2022/08/09 02:58:10;;;;;;;;;;;;;;;15.88;100.00;100007.58;1726271;83;20127;-73
2022/08/09 03:00:38;;;;;;;;;;;;;;;15.89;100.00;100014.73;1727909;83;20201;-73
2022/08/09 03:03:09;;;;;;;;;;;;;;;15.92;100.00;100016.82;1707070;83;20091;-73
2022/08/09 03:05:42;;;;;;;;;;;;;;;15.94;100.00;100014.52;1727831;83;21710;-75
2022/08/09 03:08:14;;;;;;;;;;;;;;;15.96;100.00;100010.84;1705830;83;20154;-73
2022/08/09 03:10:48;;;;;;;;;;;;;;;15.98;100.00;100008.54;1727199;83;20188;-74
2022/08/09 03:13:16;;;;;;;;;;;;;;;15.99;100.00;100001.28;1728388;83;20453;-73
2022/08/09 03:15:42;;;;;;;;;;;;;;;16.00;100.00;99995.97;1728067;83;20111;-73
2022/08/09 03:18:10;;;;;;;;;;;;;;;16.01;100.00;99996.78;1728220;83;21104;-73
2022/08/09 03:20:40;;;;;;;;;;;;;;;16.02;100.00;99992.86;1706643;83;20095;-73
2022/08/09 03:23:15;;;;;;;;;;;;;;;16.04;100.00;99995.52;1727296;83;20075;-73
2022/08/09 03:25:40;;;;;;;;;;;;;;;16.07;100.00;99995.42;1727429;83;20254;-74
2022/08/09 03:28:10;;;;;;;;;;;;;;;16.09;100.00;99988.97;1727993;83;20172;-74
2022/08/09 03:30:41;;;;;;;;;;;;;;;16.13;100.00;99999.59;1707381;83;20622;-74
2022/08/09 03:33:14;;;;;;;;;;;;;;;16.17;100.00;100003.30;1728280;83;20498;-74
2022/08/09 03:35:40;;;;;;;;;;;;;;;16.21;100.00;99995.89;1727515;83;20118;-73
2022/08/09 03:38:12;;;;;;;;;;;;;;;16.23;100.00;99999.13;1727805;83;20392;-73
2022/08/09 03:40:41;;;;;;;;;;;;;;;16.26;100.00;100001.22;1705112;83;20079;-73
2022/08/09 03:43:26;;;;;;;;;;;;;;;16.28;100.00;100005.84;1727736;83;21171;-74
2022/08/09 03:45:39;;;;;;;;;;;;;;;16.32;100.00;99995.69;1719852;83;20186;-73
2022/08/09 03:48:07;;;;;;;;;;;;;;;16.36;100.00;100001.36;1728196;83;20441;-73
2022/08/09 03:50:38;;;;;;;;;;;;;;;16.37;100.00;100002.97;1730245;83;20099;-73
2022/08/09 03:53:10;;;;;;;;;;;;;;;16.37;100.00;99999.63;1727266;83;20123;-73
2022/08/09 03:55:40;;;;;;;;;;;;;;;16.37;100.00;100003.78;1722900;83;21139;-74
2022/08/09 03:58:13;;;;;;;;;;;;;;;16.38;100.00;100000.44;1727240;83;20414;-73
2022/08/09 04:00:41;;;;;;;;;;;;;;;16.39;100.00;99995.13;1706692;83;20136;-73
2022/08/09 04:03:10;;;;;;;;;;;;;;;16.40;100.00;99995.36;1728034;83;20114;-73
2022/08/09 04:05:40;;;;;;;;;;;;;;;16.43;100.00;100005.19;1684285;83;20497;-75
2022/08/09 04:08:15;;;;;;;;;;;;;;;16.46;100.00;100004.50;1707288;83;20119;-73
2022/08/09 04:10:47;;;;;;;;;;;;;;;16.50;100.00;100004.62;1706615;83;20071;-73
2022/08/09 04:13:15;;;;;;;;;;;;;;;16.55;100.00;99994.70;1706582;83;20119;-73
2022/08/09 04:15:45;;;;;;;;;;;;;;;16.58;100.00;100000.94;1707373;83;20082;-73
2022/08/09 04:18:18;;;;;;;;;;;;;;;16.61;100.00;100002.20;1727975;83;20123;-73
2022/08/09 04:20:46;;;;;;;;;;;;;;;16.64;100.00;100001.52;1727890;83;21827;-74
2022/08/09 04:23:15;;;;;;;;;;;;;;;16.65;100.00;100002.59;1727736;83;20110;-73
2022/08/09 04:25:45;;;;;;;;;;;;;;;16.70;100.00;100007.10;1705323;83;20114;-74
2022/08/09 04:28:20;;;;;;;;;;;;;;;16.74;100.00;100007.45;1706854;83;20457;-73
2022/08/09 04:30:47;;;;;;;;;;;;;;;16.80;100.00;100010.20;1727946;83;20167;-73
2022/08/09 04:33:21;;;;;;;;;;;;;;;16.87;100.00;100010.20;1730722;83;20466;-73
2022/08/09 04:35:49;;;;;;;;;;;;;;;16.90;100.00;100011.70;1706472;83;20083;-73
2022/08/09 04:38:18;;;;;;;;;;;;;;;16.97;100.00;100009.73;1727772;83;20123;-73
2022/08/09 04:40:53;;;;;;;;;;;;;;;17.01;100.00;100000.95;1727789;82;20615;-73
2022/08/09 04:43:26;;;;;;;;;;;;;;;17.07;100.00;100000.95;1725367;83;20114;-73
2022/08/09 04:46:00;;;;;;;;;;;;;;;17.14;100.00;100008.92;1728048;82;21845;-74
2022/08/09 04:48:24;;;;;;;;;;;;;;;17.22;100.00;100006.37;1726954;83;20119;-73
2022/08/09 04:51:00;;;;;;;;;;;;;;;17.29;100.00;100011.56;1727780;82;20120;-72
2022/08/09 04:53:26;;;;;;;;;;;;;;;17.35;100.00;100013.49;1723054;83;20087;-72
2022/08/09 04:55:55;;;;;;;;;;;;;;;17.44;100.00;100021.11;1719044;83;20085;-74
2022/08/09 04:58:22;;;;;;;;;;;;;;;17.52;100.00;100023.52;1707894;83;21628;-73
2022/08/09 05:00:51;;;;;;;;;;;;;;;17.63;100.00;100022.69;1698766;84;20125;-74
2022/08/09 05:03:17;;;;;;;;;;;;;;;17.77;100.00;100025.91;1698524;84;20169;-75
2022/08/09 05:05:47;;;;;;;;;;;;;;;17.89;100.00;100031.20;1698999;84;20598;-74
2022/08/09 05:08:14;;;;;;;;;;;;;;;18.00;100.00;100032.29;1698885;84;20101;-74
2022/08/09 05:10:43;;;;;;;;;;;;;;;18.08;100.00;100039.66;1683933;84;20085;-75
2022/08/09 05:13:14;;;;;;;;;;;;;;;18.14;100.00;100034.08;1708589;84;20113;-73
2022/08/09 05:15:46;;;;;;;;;;;;;;;18.20;100.00;100032.66;1727111;83;20501;-75
2022/08/09 05:18:23;;;;;;;;;;;;;;;18.25;100.00;100031.02;1731216;82;20186;-73
2022/08/09 05:20:54;;;;;;;;;;;;;;;18.28;100.00;100040.03;1732918;82;20474;-76
2022/08/09 05:23:23;;;;;;;;;;;;;;;18.32;100.00;100033.19;1738271;82;21224;-74
2022/08/09 05:25:46;;;;;;;;;;;;;;;18.37;100.00;100032.34;1733191;82;20070;-73
2022/08/09 05:28:13;;;;;;;;;;;;;;;18.43;100.00;100039.26;1733612;82;20127;-73
2022/08/09 05:30:42;;;;;;;;;;;;;;;18.51;100.00;100043.00;1733646;82;20118;-73
2022/08/09 05:33:11;;;;;;;;;;;;;;;18.58;100.00;100041.00;1733063;82;20083;-74
2022/08/09 05:35:42;;;;;;;;;;;;;;;18.67;100.00;100041.08;1733040;82;21135;-74
2022/08/09 05:38:10;;;;;;;;;;;;;;;18.75;100.00;100051.81;1733678;83;20177;-76
2022/08/09 05:40:36;;;;;;;;;;;;;;;18.87;100.00;100046.75;1733711;82;20118;-73
2022/08/09 05:43:06;;;;;;;;;;;;;;;18.92;100.00;100047.28;1738707;82;20175;-74
2022/08/09 05:45:33;;;;;;;;;;;;;;;18.96;100.00;100046.79;1733732;82;20095;-73
2022/08/09 05:48:01;;;;;;;;;;;;;;;18.95;100.00;100046.56;1713023;82;21112;-73
2022/08/09 05:50:33;;;;;;;;;;;;;;;18.96;100.00;100047.37;1720042;83;20075;-74
2022/08/09 05:53:03;;;;;;;;;;;;;;;18.92;100.00;100047.28;1723968;83;20098;-74
2022/08/09 05:55:31;;;;;;;;;;;;;;;18.96;100.00;100049.57;1704091;84;20413;-75
2022/08/09 05:57:59;;;;;;;;;;;;;;;19.05;100.00;100051.59;1708867;83;20462;-75
2022/08/09 06:00:29;;;;;;;;;;;;;;;19.13;100.00;100045.58;1722644;83;21253;-80
2022/08/09 06:03:14;;;;;;;;;;;;;;;19.21;100.00;100053.52;1733863;83;20107;-75
2022/08/09 06:05:46;;;;;;;;;;;;;;;19.30;100.00;100041.02;1733637;83;20087;-75
2022/08/09 06:08:17;;;;;;;;;;;;;;;19.43;100.00;100038.34;1733991;83;20083;-73
2022/08/09 06:10:44;;;;;;;;;;;;;;;19.56;100.00;100040.45;1735309;82;20077;-73
2022/08/09 06:13:13;;;;;;;;;;;;;;;19.63;100.00;100040.61;1720642;81;20109;-74
2022/08/09 06:15:41;;;;;;;;;;;;;;;19.69;100.00;100036.92;1731757;82;20084;-77
2022/08/09 06:18:14;;;;;;;;;;;;;;;19.76;100.00;100034.30;1725141;83;20137;-74
2022/08/09 06:20:42;;;;;;;;;;;;;;;19.84;100.00;100042.22;1724128;83;20105;-73
2022/08/09 06:23:08;;;;;;;;;;;;;;;19.94;100.00;100052.78;1724164;83;20432;-72
2022/08/09 06:25:40;;;;;;;;;;;;;;;20.03;100.00;100048.61;1723327;83;20100;-77
2022/08/09 06:28:10;;;;;;;;;;;;;;;20.14;100.00;100047.43;1724529;83;20180;-75
2022/08/09 06:30:44;;;;;;;;;;;;;;;20.30;100.00;100040.34;1724579;82;20120;-75
2022/08/09 06:33:20;;;;;;;;;;;;;;;20.50;100.00;100048.93;1693029;83;20101;-74
2022/08/09 06:35:44;;;;;;;;;;;;;;;20.71;100.00;100051.30;1724229;83;20089;-74
2022/08/09 06:38:11;;;;;;;;;;;;;;;20.94;100.00;100044.30;1724655;83;21590;-74
2022/08/09 06:40:42;;;;;;;;;;;;;;;21.18;100.00;100043.09;1724382;83;20089;-74
2022/08/09 06:43:12;;;;;;;;;;;;;;;21.41;100.00;100046.64;1724097;82;20180;-76
2022/08/09 06:45:46;;;;;;;;;;;;;;;21.60;95.56;100046.53;1724707;82;20121;-73
2022/08/09 06:48:11;;;;;;;;;;;;;;;21.72;92.02;100046.30;1724232;83;20085;-74
2022/08/09 06:50:44;;;;;;;;;;;;;;;21.83;88.78;100052.62;1715969;83;21172;-74
2022/08/09 06:53:10;;;;;;;;;;;;;;;21.96;87.75;100053.38;1724382;83;20113;-74
2022/08/09 06:55:42;;;;;;;;;;;;;;;22.13;86.38;100053.41;1719555;83;20128;-73
2022/08/09 06:58:12;;;;;;;;;;;;;;;;;;1717363;83;20421;-75
2022/08/09 07:00:44;;;;;;;;;;;;;;;22.32;81.99;100053.84;1721165;83;20160;-74
2022/08/09 07:03:22;;;;;;;;;;;;;;;22.34;81.97;100053.66;1749231;82;20098;-74
2022/08/09 07:05:46;;;;;;;;;;;;;;;22.38;80.76;100060.10;1753878;82;20142;-74
2022/08/09 07:08:17;;;;;;;;;;;;;;;22.38;77.75;100064.30;1754956;81;20114;-74
2022/08/09 07:10:45;;;;;;;;;;;;;;;22.35;75.99;100061.46;1731523;82;20180;-75
2022/08/09 07:13:16;;;;;;;;;;;;;;;22.36;77.30;100064.47;1722718;83;20113;-74
2022/08/09 07:15:43;;;;;;;;;;;;;;;22.40;77.15;100060.52;1694717;83;20113;-75
2022/08/09 07:18:15;;;;;;;;;;;;;;;22.50;77.70;100068.02;1695639;83;20109;-75
2022/08/09 07:20:51;;;;;;;;;;;;;;;22.64;76.79;100057.75;1668726;84;20153;-74
2022/08/09 07:23:31;;;;;;;;;;;;;;;22.77;76.15;100065.27;1712734;83;20109;-74
2022/08/09 07:25:49;;;;;;;;;;;;;;;22.81;75.58;100057.75;1719476;83;20117;-75
2022/08/09 07:28:13;;;;;;;;;;;;;;;22.93;75.46;100059.45;1722820;83;21211;-74
2022/08/09 07:30:46;;;;;;;;;;;;;;;23.02;75.77;100065.53;1724699;83;20440;-75
2022/08/09 07:33:11;;;;;;;;;;;;;;;23.05;73.91;100058.56;1723306;83;20125;-74
2022/08/09 07:35:42;;;;;;;;;;;;;;;23.12;71.88;100064.79;1719775;83;20085;-74
2022/08/09 07:38:09;;;;;;;;;;;;;;;23.13;70.90;100069.20;1724424;82;20128;-74
2022/08/09 07:40:38;;;;;;;;;;;;;;;23.07;69.13;100069.98;1724332;83;21119;-74
2022/08/09 07:43:05;;;;;;;;;;;;;;;22.99;69.46;100072.71;1724287;83;20404;-74
2022/08/09 07:45:36;;;;;;;;;;;;;;;22.96;69.90;100067.89;1724353;83;20085;-74
2022/08/09 07:48:09;;;;;;;;;;;;;;;22.95;70.30;100073.28;1724362;83;20152;-73
2022/08/09 07:50:39;;;;;;;;;;;;;;;22.94;71.67;100068.87;1724024;83;20085;-73
2022/08/09 07:53:09;;;;;;;;;;;;;;;22.91;73.22;100078.63;1697854;83;20432;-74
2022/08/09 07:55:35;;;;;;;;;;;;;;;22.90;73.54;100073.63;1723789;83;20134;-74
2022/08/09 07:58:12;;;;;;;;;;;;;;;22.88;72.21;100077.41;1724316;83;20114;-74
2022/08/09 08:00:41;;;;;;;;;;;;;;;22.83;72.45;100083.95;1723435;83;20121;-75
2022/08/09 08:03:11;;;;;;;;;;;;;;;22.76;71.63;100086.05;1724672;83;20425;-74
2022/08/09 08:05:42;;;;;;;;;;;;;;;22.68;71.93;100087.17;1697831;83;20124;-75
2022/08/09 08:10:40;;;;;;;;;;;;;;;22.49;71.78;100090.19;1707412;82;20090;-75
2022/08/09 08:13:08;;;;;;;;;;;;;;;22.46;71.61;100094.55;1711341;84;20161;-74
2022/08/09 08:15:39;;;;;;;;;;;;;;;22.45;72.08;100098.55;1711265;83;20085;-75
2022/08/09 08:18:07;;;;;;;;;;;;;;;22.42;71.20;100097.10;1711266;84;21789;-75
2022/08/09 08:20:36;;;;;;;;;;;;;;;22.32;70.92;100091.00;1711235;84;20102;-76
2022/08/09 08:23:03;;;;;;;;;;;;;;;22.23;71.36;100091.89;1710611;82;20099;-74
2022/08/09 08:25:45;;;;;;;;;;;;;;;22.17;71.06;100090.61;1679596;84;20421;-75
2022/08/09 08:28:19;;;;;;;;;;;;;;;22.19;71.63;100091.63;1710511;83;20441;-74
2022/08/09 08:31:01;;;;;;;;;;;;;;;22.21;70.30;100087.86;1711355;84;20413;-74
2022/08/09 08:33:28;;;;;;;;;;;;;;;22.14;69.62;100093.36;1711158;84;20113;-75
2022/08/09 08:35:56;;;;;;;;;;;;;;;22.06;70.28;100086.88;1711225;84;20121;-75
2022/08/09 08:38:30;;;;;;;;;;;;;;;22.02;71.85;100084.03;1711354;84;20133;-75
2022/08/09 08:40:56;;;;;;;;;;;;;;;22.06;72.34;100088.27;1710246;84;20454;-74
2022/08/09 08:43:23;;;;;;;;;;;;;;;22.11;72.74;100080.14;1706893;84;21156;-74
2022/08/09 08:45:56;;;;;;;;;;;;;;;22.15;72.63;100080.99;1711165;84;20181;-74
2022/08/09 08:48:23;;;;;;;;;;;;;;;22.16;73.04;100075.02;1711271;83;20122;-74
2022/08/09 08:50:54;;;;;;;;;;;;;;;22.23;73.22;100086.30;1711270;84;20416;-74
2022/08/09 08:53:24;;;;;;;;;;;;;;;22.22;72.86;100079.69;1707032;84;20440;-74
2022/08/09 08:55:52;;;;;;;;;;;;;;;22.19;73.42;100083.24;1682082;84;20605;-75
2022/08/09 08:58:20;;;;;;;;;;;;;;;22.19;73.28;100086.03;1710487;84;20436;-75
2022/08/09 09:00:49;;;;;;;;;;;;;;;22.23;73.60;100082.09;1711339;83;20114;-75
2022/08/09 09:03:17;;;;;;;;;;;;;;;22.24;72.83;100082.31;1683553;84;20101;-75
2022/08/09 09:05:50;;;;;;;;;;;;;;;22.27;71.40;100074.56;1711293;83;20089;-74
2022/08/09 09:08:16;;;;;;;;;;;;;;;22.27;67.35;100070.36;1710847;84;21133;-76
2022/08/09 09:10:51;;;;;;;;;;;;;;;22.24;67.04;100073.92;1713361;83;20109;-77
2022/08/09 09:13:17;;;;;;;;;;;;;;;22.26;67.75;100074.94;1706294;83;20152;-76
2022/08/09 09:15:46;;;;;;;;;;;;;;;22.23;66.50;100079.30;1704015;84;20507;-76
2022/08/09 09:18:15;;;;;;;;;;;;;;;22.22;66.91;100082.48;1703808;84;20140;-76
2022/08/09 09:20:45;;;;;;;;;;;;;;;22.19;67.67;100075.66;1704297;84;21761;-77
2022/08/09 09:23:09;;;;;;;;;;;;;;;22.17;68.09;100075.83;1712325;83;20516;-74
2022/08/09 09:25:42;;;;;;;;;;;;;;;22.17;67.90;100071.04;1732278;82;20153;-74
2022/08/09 09:28:12;;;;;;;;;;;;;;;22.19;66.62;100074.27;1711943;83;20495;-74
2022/08/09 09:30:53;;;;;;;;;;;;;;;22.18;66.43;100074.05;1724874;83;20194;-74
2022/08/09 09:33:19;;;;;;;;;;;;;;;22.16;65.00;100074.22;1725945;83;21143;-74
2022/08/09 09:35:56;;;;;;;;;;;;;;;22.21;66.16;100067.69;1733092;83;20160;-74
2022/08/09 09:38:25;;;;;;;;;;;;;;;22.25;66.51;100073.33;1729801;83;20436;-73
2022/08/09 09:40:51;;;;;;;;;;;;;;;22.23;66.59;100076.51;1729981;83;20307;-78
2022/08/09 09:43:19;;;;;;;;;;;;;;;22.25;67.25;100071.93;1703718;83;20184;-80
2022/08/09 09:45:50;;;;;;;;;;;;;;;22.31;67.12;100075.41;1703655;83;21120;-77
2022/08/09 09:48:17;;;;;;;;;;;;;;;22.37;65.84;100076.67;1703969;84;20468;-81
2022/08/09 09:50:45;;;;;;;;;;;;;;;22.44;64.81;100075.15;1703623;84;20175;-77
2022/08/09 09:53:20;;;;;;;;;;;;;;;22.53;64.64;100069.42;1703536;84;20551;-78
2022/08/09 09:55:56;;;;;;;;;;;;;;;22.58;64.01;100072.47;1703834;84;20136;-77
2022/08/09 09:58:23;;;;;;;;;;;;;;;22.66;62.92;100074.16;1703974;84;21121;-78
2022/08/09 10:00:55;;;;;;;;;;;;;;;22.67;62.72;100073.77;1703647;84;20085;-74
2022/08/09 10:03:43;;;;;;;;;;;;;;;22.62;62.18;100070.52;1702648;83;20460;-76
2022/08/09 10:06:11;;;;;;;;;;;;;;;22.58;61.80;100070.48;1719538;83;20485;-74
2022/08/09 10:08:39;;;;;;;;;;;;;;;22.56;63.19;100072.05;1712847;83;20276;-77
2022/08/09 10:11:28;;;;;;;;;;;;;;;22.53;62.95;100068.66;1718072;83;21129;-77
2022/08/09 10:13:54;;;;;;;;;;;;;;;22.52;63.33;100068.44;1715614;83;20097;-78
2022/08/09 10:16:31;;;;;;;;;;;;;;;22.49;63.85;100072.01;1704484;83;20205;-80
2022/08/09 10:19:00;;;;;;;;;;;;;;;22.42;64.77;100070.53;1696937;83;20492;-82
2022/08/09 10:21:27;;;;;;;;;;;;;;;22.39;64.58;100067.30;1698207;83;20447;-71
2022/08/09 10:23:54;;;;;;;;;;;;;;;22.33;66.29;100071.63;1695715;83;21127;-71
2022/08/09 10:26:21;;;;;;;;;;;;;;;22.23;65.15;100063.12;1691837;83;20149;-79
2022/08/09 10:29:01;;;;;;;;;;;;;;;22.14;67.01;100069.00;1710979;83;20075;-73
2022/08/09 10:31:16;;;;;;;;;;;;;;;22.13;66.56;100069.39;1692673;83;20447;-71
2022/08/09 10:33:43;;;;;;;;;;;;;;;22.03;65.90;100063.28;1691747;83;20552;-74
2022/08/09 10:36:15;;;;;;;;;;;;;;;22.00;65.76;100062.61;1688405;85;21263;-74
2022/08/09 10:38:45;;;;;;;;;;;;;;;21.99;66.41;100065.78;1692885;83;20118;-74
2022/08/09 10:41:13;;;;;;;;;;;;;;;21.96;66.84;100060.36;1700837;83;20073;-73
2022/08/09 10:43:50;;;;;;;;;;;;;;;21.93;66.17;100060.34;1688585;85;20143;-73
2022/08/09 10:46:34;;;;;;;;;;;;;;;21.90;67.18;100060.52;1688400;83;20193;-74
2022/08/09 10:49:10;;;;;;;;;;;;;;;21.91;67.92;100061.31;1688642;85;21151;-74
2022/08/09 10:51:49;;;;;;;;;;;;;;;21.95;66.98;100047.57;1688398;84;20086;-76
2022/08/09 10:54:23;;;;;;;;;;;;;;;21.96;67.42;100050.58;1706173;83;20117;-76
2022/08/09 10:57:08;;;;;;;;;;;;;;;22.01;68.09;100041.05;1709044;83;20159;-77
2022/08/09 10:59:44;;;;;;;;;;;;;;;22.06;68.67;100046.34;1717451;83;20112;-77
2022/08/09 11:02:23;;;;;;;;;;;;;;;22.08;67.42;100048.16;1698394;83;21126;-75
2022/08/09 11:05:15;;;;;;;;;;;;;;;22.02;65.83;100051.89;1703383;83;20100;-76
2022/08/09 11:07:44;;;;;;;;;;;;;;;21.90;64.42;100045.73;1715171;82;20403;-75
2022/08/09 11:10:14;;;;;;;;;;;;;;;21.88;62.99;100051.70;1717358;83;20369;-75
2022/08/09 11:12:45;;;;;;;;;;;;;;;21.91;62.76;100051.53;1716950;83;20180;-76
2022/08/09 11:15:28;;;;;;;;;;;;;;;21.97;61.31;100048.00;1714669;83;22160;-79
2022/08/09 11:17:57;;;;;;;;;;;;;;;22.00;61.17;100048.63;1717081;83;20139;-81
2022/08/09 11:20:41;;;;;;;;;;;;;;;22.08;61.03;100055.95;1717611;83;20139;-76
2022/08/09 11:23:10;;;;;;;;;;;;;;;22.19;61.29;100054.69;1705397;83;20201;-77
2022/08/09 11:25:49;;;;;;;;;;;;;;;22.38;60.49;100053.70;1688982;85;20085;-77
2022/08/09 11:28:32;;;;;;;;;;;;;;;22.57;59.63;100049.28;1687547;84;21078;-84
2022/08/09 11:31:03;;;;;;;;;;;;;;;22.76;59.79;100049.67;1688817;85;20133;-76
2022/08/09 11:33:35;;;;;;;;;;;;;;;22.94;60.05;100049.27;1674113;83;20101;-77
2022/08/09 11:36:05;;;;;;;;;;;;;;;23.04;58.34;100047.75;1696980;83;20144;-77
2022/08/09 11:38:33;;;;;;;;;;;;;;;23.16;59.15;100050.22;1717120;83;20422;-77
2022/08/09 11:41:15;;;;;;;;;;;;;;;23.25;58.60;100044.28;1692898;83;21194;-75
2022/08/09 11:43:51;;;;;;;;;;;;;;;23.32;58.07;100042.94;1689446;84;20452;-76
2022/08/09 11:46:15;;;;;;;;;;;;;;;23.39;57.76;100042.98;1688513;84;20102;-76
2022/08/09 11:48:50;;;;;;;;;;;;;;;23.48;55.55;100046.84;1689103;85;20441;-76
2022/08/09 11:51:22;;;;;;;;;;;;;;;23.48;55.96;100043.45;1661440;85;20129;-77
2022/08/09 11:54:07;;;;;;;;;;;;;;;23.48;55.53;100044.85;1689168;84;21134;-75
2022/08/09 11:56:35;;;;;;;;;;;;;;;23.57;56.54;100043.13;1688663;84;20130;-76
2022/08/09 11:59:03;;;;;;;;;;;;;;;23.74;55.13;100043.00;1693065;84;20440;-75
2022/08/09 12:01:36;;;;;;;;;;;;;;;23.88;55.67;100050.89;1689116;85;20153;-74
2022/08/09 12:04:13;;;;;;;;;;;;;;;24.03;55.86;100046.95;1688534;84;20433;-74
2022/08/09 12:06:57;;;;;;;;;;;;;;;24.26;54.64;100045.86;1689011;84;21191;-75
2022/08/09 12:09:30;;;;;;;;;;;;;;;24.45;54.05;100042.68;1689119;85;20082;-74
2022/08/09 12:12:04;;;;;;;;;;;;;;;24.60;53.61;100046.32;1685216;85;20433;-75
2022/08/09 12:14:33;;;;;;;;;;;;;;;24.66;53.40;100040.52;1711762;84;20469;-76
2022/08/09 12:17:01;;;;;;;;;;;;;;;24.82;52.69;100043.75;1713111;84;20146;-75
2022/08/09 12:19:37;;;;;;;;;;;;;;;25.03;51.86;100034.53;1713013;84;21172;-75
2022/08/09 12:22:08;;;;;;;;;;;;;;;25.09;51.57;100031.52;1712153;83;20121;-75
2022/08/09 12:24:35;;;;;;;;;;;;;;;24.94;51.66;100033.49;1689418;84;20137;-74
2022/08/09 12:27:12;;;;;;;;;;;;;;;24.72;51.86;100031.10;1713107;84;20237;-75
2022/08/09 12:29:43;;;;;;;;;;;;;;;24.51;52.04;100029.06;1712738;83;20089;-74
2022/08/09 12:32:11;;;;;;;;;;;;;;;24.35;52.75;100031.63;1706757;83;21224;-74
2022/08/09 12:34:41;;;;;;;;;;;;;;;24.33;53.14;100035.44;1711887;83;20129;-74
2022/08/09 12:37:10;;;;;;;;;;;;;;;24.40;53.48;100037.45;1712984;84;20463;-75
2022/08/09 12:39:40;;;;;;;;;;;;;;;24.44;52.14;100027.64;1691157;83;20447;-76
2022/08/09 12:42:14;;;;;;;;;;;;;;;24.53;53.28;100025.26;1699028;83;20093;-75
2022/08/09 12:44:43;;;;;;;;;;;;;;;24.67;54.09;100032.30;1713003;84;21552;-75
2022/08/09 12:47:09;;;;;;;;;;;;;;;24.78;53.34;100038.73;1726907;82;20151;-75
2022/08/09 12:49:36;;;;;;;;;;;;;;;24.79;51.50;100038.94;1721610;82;20234;-75
2022/08/09 12:52:10;;;;;;;;;;;;;;;24.72;52.61;100035.31;1719608;82;20437;-75
2022/08/09 12:54:51;;;;;;;;;;;;;;;24.58;53.66;100034.69;1742458;82;20099;-73